Time;durP1;ratioP1;P1;durP2;ratioP2;P2;SDS_P1;SDS_P2;PMS_P1;PMS_P2;Temp;Humidity;BMP_temperature;BMP_pressure;BME280_temperature;BME280_humidity;BME280_pressure;Samples;Min_cycle;Max_cycle;Signal;HPM_P1;HPM_P2
2022/07/05 00:01:00;;;;;;;4.88;2.05;;;25.40;45.20;;;;;;5055629;28;20023;-92
2022/07/05 00:03:26;;;;;;;3.05;2.17;;;25.40;45.60;;;;;;5058364;28;20111;-92
2022/07/05 00:05:52;;;;;;;3.90;2.35;;;25.30;46.30;;;;;;5056084;28;20029;-92
2022/07/05 00:08:18;;;;;;;5.18;2.47;;;25.30;46.40;;;;;;5052275;28;20098;-92
2022/07/05 00:10:43;;;;;;;3.38;2.00;;;25.20;46.80;;;;;;5035077;28;20033;-92
2022/07/05 00:13:09;;;;;;;4.30;1.88;;;25.10;47.00;;;;;;5034384;28;20021;-92
2022/07/05 00:15:35;;;;;;;3.35;2.00;;;25.00;47.70;;;;;;5052315;28;20029;-92
2022/07/05 00:18:01;;;;;;;8.60;2.05;;;24.90;47.90;;;;;;5052158;28;20732;-93
2022/07/05 00:20:26;;;;;;;4.82;2.13;;;24.90;48.20;;;;;;5038248;28;20045;-93
2022/07/05 00:22:52;;;;;;;3.70;2.35;;;24.80;48.30;;;;;;5057863;28;20027;-92
2022/07/05 00:25:18;;;;;;;2.83;2.10;;;24.80;48.80;;;;;;5037688;28;20029;-91
2022/07/05 00:27:43;;;;;;;6.60;2.05;;;24.70;48.60;;;;;;5036840;28;20296;-92
2022/07/05 00:30:11;;;;;;;2.38;1.58;;;24.60;47.60;;;;;;5036903;28;20520;-92
2022/07/05 00:32:37;;;;;;;3.35;2.08;;;24.50;47.30;;;;;;5035303;28;20409;-92
2022/07/05 00:35:04;;;;;;;4.47;1.70;;;24.50;47.30;;;;;;5034691;28;20025;-88
2022/07/05 00:37:30;;;;;;;4.32;2.05;;;24.40;47.50;;;;;;5033121;28;20440;-91
2022/07/05 00:39:55;;;;;;;3.92;2.10;;;24.40;47.60;;;;;;5033720;28;20029;-91
2022/07/05 00:42:21;;;;;;;2.80;1.92;;;24.30;48.00;;;;;;5052116;28;20029;-91
2022/07/05 00:44:47;;;;;;;3.35;1.63;;;24.20;48.20;;;;;;5034805;28;20037;-90
2022/07/05 00:47:13;;;;;;;2.78;1.67;;;24.10;48.50;;;;;;5034885;28;20017;-90
2022/07/05 00:49:40;;;;;;;2.63;1.92;;;24.10;49.10;;;;;;5053875;28;20044;-90
2022/07/05 00:52:06;;;;;;;6.32;1.63;;;24.00;49.30;;;;;;5034240;28;20025;-89
2022/07/05 00:54:34;;;;;;;4.25;2.05;;;23.90;49.60;;;;;;5051665;28;20052;-94
2022/07/05 00:57:00;;;;;;;2.08;1.58;;;23.90;49.40;;;;;;5033947;28;20252;-94
2022/07/05 00:59:28;;;;;;;5.10;1.88;;;23.80;50.20;;;;;;5017184;28;20095;-91
2022/07/05 01:01:54;;;;;;;5.13;2.00;;;23.70;50.60;;;;;;5034290;28;20108;-91
2022/07/05 01:04:19;;;;;;;4.45;2.08;;;23.70;50.60;;;;;;5033978;28;20029;-91
2022/07/05 01:06:48;;;;;;;3.47;2.03;;;23.60;50.90;;;;;;5033751;28;20017;-90
2022/07/05 01:09:16;;;;;;;2.80;1.90;;;23.60;50.90;;;;;;5033852;28;20037;-91
2022/07/05 01:11:49;;;;;;;2.78;1.88;;;23.50;50.70;;;;;;5033782;28;20474;-91
2022/07/05 01:14:23;;;;;;;4.20;2.00;;;23.50;50.90;;;;;;5033576;28;20029;-91
2022/07/05 01:16:50;;;;;;;3.10;1.90;;;23.50;51.30;;;;;;5051315;28;20485;-91
2022/07/05 01:19:17;;;;;;;2.78;1.80;;;23.50;51.40;;;;;;5033593;28;20111;-90
2022/07/05 01:21:44;;;;;;;4.55;1.98;;;23.40;51.40;;;;;;5051216;28;20045;-89
2022/07/05 01:24:12;;;;;;;2.63;1.63;;;23.40;52.00;;;;;;5032989;28;20163;-89
2022/07/05 01:26:39;;;;;;;4.45;1.80;;;23.30;52.40;;;;;;5033314;28;20032;-87
2022/07/05 01:29:06;;;;;;;2.63;1.70;;;23.30;52.80;;;;;;5049557;28;20053;-88
2022/07/05 01:31:32;;;;;;;4.40;1.88;;;23.20;53.00;;;;;;5049188;28;20025;-87
2022/07/05 01:33:58;;;;;;;7.95;2.15;;;23.20;53.50;;;;;;5051208;28;20032;-87
2022/07/05 01:36:24;;;;;;;3.63;1.67;;;23.10;54.20;;;;;;5050911;28;20017;-88
2022/07/05 01:38:50;;;;;;;3.60;1.88;;;23.10;54.10;;;;;;5033731;28;20029;-89
2022/07/05 01:41:16;;;;;;;5.18;1.80;;;23.00;54.20;;;;;;5035547;28;20032;-89
2022/07/05 01:43:42;;;;;;;2.15;1.70;;;22.90;53.80;;;;;;5034190;28;20029;-89
2022/07/05 01:46:08;;;;;;;2.97;1.70;;;22.80;53.70;;;;;;5032902;28;20029;-89
2022/07/05 01:48:37;;;;;;;2.33;1.65;;;22.90;53.90;;;;;;5037372;28;20045;-90
2022/07/05 01:51:18;;;;;;;3.30;1.90;;;22.80;54.00;;;;;;5037514;28;20033;-89
2022/07/05 01:53:46;;;;;;;8.00;2.10;;;22.80;54.00;;;;;;5037069;28;20025;-90
2022/07/05 01:56:12;;;;;;;11.25;1.88;;;22.70;54.10;;;;;;5054854;28;20087;-90
2022/07/05 01:58:39;;;;;;;2.80;1.83;;;22.70;55.30;;;;;;5036820;28;20037;-90
2022/07/05 02:01:04;;;;;;;3.47;2.08;;;22.70;54.70;;;;;;5037290;28;20497;-89
2022/07/05 02:03:30;;;;;;;3.38;2.33;;;22.70;54.90;;;;;;5037233;28;20021;-90
2022/07/05 02:05:56;;;;;;;2.80;2.00;;;22.60;55.00;;;;;;5036542;28;20136;-89
2022/07/05 02:08:29;;;;;;;3.97;1.80;;;22.60;55.10;;;;;;5036943;28;20556;-90
2022/07/05 02:10:54;;;;;;;4.90;1.50;;;22.60;55.50;;;;;;5036560;28;20025;-91
2022/07/05 02:13:21;;;;;;;4.57;2.17;;;22.50;55.80;;;;;;5054711;28;20039;-90
2022/07/05 02:15:47;;;;;;;2.35;1.90;;;22.50;57.00;;;;;;5036427;28;20021;-87
2022/07/05 02:18:13;;;;;;;5.47;2.03;;;22.40;57.10;;;;;;5036402;28;20025;-90
2022/07/05 02:20:40;;;;;;;4.55;1.90;;;22.40;57.10;;;;;;5036495;28;20029;-89
2022/07/05 02:23:06;;;;;;;2.47;1.85;;;22.30;57.20;;;;;;5035153;28;20028;-90
2022/07/05 02:25:31;;;;;;;3.00;1.75;;;22.30;57.20;;;;;;5042156;28;20067;-90
2022/07/05 02:27:57;;;;;;;2.60;1.88;;;22.30;57.50;;;;;;5035260;28;20083;-90
2022/07/05 02:30:23;;;;;;;2.65;1.85;;;22.20;57.70;;;;;;5047352;28;20482;-89
2022/07/05 02:32:49;;;;;;;6.13;1.75;;;22.10;58.00;;;;;;5054327;28;20025;-91
2022/07/05 02:35:14;;;;;;;4.75;2.10;;;22.10;58.10;;;;;;5037428;28;20123;-91
2022/07/05 02:37:40;;;;;;;4.03;1.80;;;22.00;58.60;;;;;;5037392;28;20021;-91
2022/07/05 02:40:11;;;;;;;4.07;2.45;;;22.00;59.10;;;;;;5038804;28;20029;-90
2022/07/05 02:42:37;;;;;;;7.38;2.00;;;21.90;59.40;;;;;;5035995;28;20117;-91
2022/07/05 02:45:04;;;;;;;2.55;1.95;;;21.90;59.50;;;;;;5036604;28;20061;-92
2022/07/05 02:47:31;;;;;;;4.05;2.10;;;21.80;59.50;;;;;;5038137;28;20024;-92
2022/07/05 02:50:08;;;;;;;4.18;1.92;;;21.80;59.90;;;;;;5043670;28;20036;-92
2022/07/05 02:52:34;;;;;;;5.50;2.33;;;21.80;60.30;;;;;;5072897;28;20024;-90
2022/07/05 02:55:00;;;;;;;3.83;1.70;;;21.90;60.30;;;;;;5055769;28;20090;-91
2022/07/05 02:57:26;;;;;;;2.75;1.90;;;21.80;60.30;;;;;;5072191;28;20024;-91
2022/07/05 02:59:55;;;;;;;5.32;2.00;;;21.80;60.30;;;;;;5037125;28;20112;-91
2022/07/05 03:02:22;;;;;;;2.40;1.65;;;21.80;60.50;;;;;;5036329;28;20029;-91
2022/07/05 03:04:47;;;;;;;5.22;2.30;;;21.90;60.80;;;;;;5036722;28;20036;-90
2022/07/05 03:07:13;;;;;;;6.05;2.28;;;21.90;61.50;;;;;;5035665;28;20025;-90
2022/07/05 03:09:39;;;;;;;8.27;2.20;;;22.00;61.60;;;;;;5035367;28;20108;-89
2022/07/05 03:12:05;;;;;;;3.65;2.03;;;22.00;61.10;;;;;;5035793;28;20029;-90
2022/07/05 03:14:31;;;;;;;3.80;1.85;;;22.10;60.30;;;;;;5058897;28;20024;-90
2022/07/05 03:16:57;;;;;;;2.90;1.85;;;22.20;60.20;;;;;;5053555;28;20032;-90
2022/07/05 03:19:22;;;;;;;4.40;2.17;;;22.30;60.00;;;;;;5051918;28;20017;-91
2022/07/05 03:21:48;;;;;;;2.30;1.73;;;22.40;60.00;;;;;;5035754;28;20705;-91
2022/07/05 03:24:14;;;;;;;9.85;1.75;;;22.50;60.10;;;;;;5035456;28;20405;-92
2022/07/05 03:26:39;;;;;;;3.65;1.80;;;22.50;59.70;;;;;;5035139;28;20060;-91
2022/07/05 03:29:05;;;;;;;3.03;1.92;;;22.60;59.50;;;;;;5030799;28;20045;-88
2022/07/05 03:31:31;;;;;;;4.60;2.38;;;22.60;59.10;;;;;;5033438;28;20029;-89
2022/07/05 03:33:56;;;;;;;5.43;1.63;;;22.70;59.40;;;;;;5034724;28;20029;-90
2022/07/05 03:36:22;;;;;;;2.33;1.60;;;22.70;59.50;;;;;;5034810;28;20607;-89
2022/07/05 03:38:48;;;;;;;4.10;1.60;;;22.80;59.30;;;;;;5034699;28;20108;-90
2022/07/05 03:41:13;;;;;;;2.63;1.58;;;22.80;59.00;;;;;;5034860;28;20029;-89
2022/07/05 03:43:39;;;;;;;3.15;2.30;;;22.90;59.10;;;;;;5031100;28;20037;-90
2022/07/05 03:46:05;;;;;;;4.88;2.05;;;23.00;58.90;;;;;;5018746;28;20049;-89
2022/07/05 03:48:30;;;;;;;6.25;1.83;;;23.00;58.50;;;;;;5027978;28;20041;-88
2022/07/05 03:50:56;;;;;;;6.63;1.85;;;23.10;58.60;;;;;;5014227;28;20042;-88
2022/07/05 03:53:22;;;;;;;4.20;1.98;;;23.20;59.00;;;;;;5011910;28;20046;-88
2022/07/05 03:55:48;;;;;;;5.75;1.85;;;23.30;59.30;;;;;;5004585;28;20030;-88
2022/07/05 03:58:14;;;;;;;3.63;1.65;;;23.30;59.50;;;;;;4991600;28;20653;-89
2022/07/05 04:00:39;;;;;;;3.20;1.95;;;23.40;60.00;;;;;;5002195;28;20038;-89
2022/07/05 04:03:05;;;;;;;3.40;2.10;;;23.50;60.50;;;;;;4993800;28;20120;-88
2022/07/05 04:05:31;;;;;;;4.22;1.70;;;23.60;59.30;;;;;;4990470;28;20525;-88
2022/07/05 04:07:56;;;;;;;5.90;1.90;;;23.70;59.90;;;;;;4987161;28;20038;-90
2022/07/05 04:10:23;;;;;;;2.72;1.90;;;23.80;58.90;;;;;;4998528;28;20033;-89
2022/07/05 04:12:51;;;;;;;4.32;1.73;;;23.90;57.70;;;;;;5015388;28;20045;-88
2022/07/05 04:15:17;;;;;;;6.13;2.20;;;24.00;57.10;;;;;;4990360;28;20127;-88
2022/07/05 04:17:47;;;;;;;5.43;1.83;;;24.10;56.80;;;;;;5004558;28;20596;-88
2022/07/05 04:20:13;;;;;;;4.85;2.17;;;24.20;56.10;;;;;;4985921;28;20042;-88
2022/07/05 04:22:38;;;;;;;4.70;2.00;;;24.20;55.60;;;;;;5026515;28;20060;-87
2022/07/05 04:25:16;;;;;;;3.72;2.03;;;24.30;55.80;;;;;;5042683;28;20212;-88
2022/07/05 04:27:46;;;;;;;17.77;2.13;;;24.30;56.10;;;;;;5014848;28;20520;-88
2022/07/05 04:30:12;;;;;;;15.25;1.98;;;24.40;56.40;;;;;;4991514;28;20041;-88
2022/07/05 04:32:38;;;;;;;6.93;2.15;;;24.40;56.70;;;;;;4997673;28;20038;-87
2022/07/05 04:35:04;;;;;;;2.63;1.40;;;24.50;57.00;;;;;;4995261;28;20054;-88
2022/07/05 04:37:29;;;;;;;5.20;2.28;;;24.50;57.40;;;;;;4993498;28;20384;-89
2022/07/05 04:39:55;;;;;;;10.07;2.10;;;24.60;58.00;;;;;;5016260;28;20032;-90
2022/07/05 04:42:21;;;;;;;3.55;1.85;;;24.60;58.00;;;;;;5029005;28;20123;-89
2022/07/05 04:44:46;;;;;;;4.65;1.70;;;24.60;57.50;;;;;;5031282;28;20101;-90
2022/07/05 04:47:12;;;;;;;7.57;2.15;;;24.70;57.20;;;;;;5014447;28;20179;-89
2022/07/05 04:49:38;;;;;;;11.60;1.85;;;24.80;57.20;;;;;;5033595;28;20167;-89
2022/07/05 04:52:04;;;;;;;11.27;2.20;;;24.90;57.10;;;;;;5035184;28;20049;-89
2022/07/05 04:54:29;;;;;;;7.90;1.98;;;25.00;57.00;;;;;;5034411;28;20029;-89
2022/07/05 04:56:55;;;;;;;21.17;2.20;;;25.00;56.80;;;;;;5034143;28;20501;-90
2022/07/05 04:59:21;;;;;;;10.68;2.00;;;25.10;56.10;;;;;;5033592;28;20557;-88
2022/07/05 05:01:46;;;;;;;5.07;1.77;;;25.20;56.40;;;;;;5032467;28;20357;-89
2022/07/05 05:04:12;;;;;;;9.75;1.95;;;25.30;56.30;;;;;;5033206;28;20036;-89
2022/07/05 05:06:38;;;;;;;9.13;1.73;;;25.50;56.80;;;;;;5041864;28;20029;-89
2022/07/05 05:09:03;;;;;;;8.45;2.10;;;25.60;56.30;;;;;;5053268;28;20041;-88
2022/07/05 05:11:29;;;;;;;4.20;1.52;;;25.70;55.50;;;;;;5053580;28;20059;-89
2022/07/05 05:13:55;;;;;;;10.63;1.67;;;25.90;54.90;;;;;;5048826;28;20492;-89
2022/07/05 05:16:20;;;;;;;4.55;2.30;;;26.10;55.10;;;;;;5048120;28;20551;-90
2022/07/05 05:18:46;;;;;;;4.93;1.70;;;26.20;55.70;;;;;;5033707;28;20024;-90
2022/07/05 05:21:12;;;;;;;12.60;2.10;;;26.30;56.00;;;;;;5034317;28;20147;-89
2022/07/05 05:23:37;;;;;;;20.70;2.30;;;26.30;56.20;;;;;;5037214;28;20029;-89
2022/07/05 05:26:03;;;;;;;17.23;2.78;;;26.40;55.50;;;;;;5037882;28;20473;-89
2022/07/05 05:28:29;;;;;;;10.70;2.22;;;26.50;55.30;;;;;;5037957;28;20513;-90
2022/07/05 05:30:54;;;;;;;19.55;2.85;;;26.50;54.60;;;;;;5037111;28;20033;-91
2022/07/05 05:33:20;;;;;;;8.77;2.40;;;26.50;54.30;;;;;;5037879;28;20021;-90
2022/07/05 05:35:46;;;;;;;11.20;2.63;;;26.50;53.60;;;;;;5037086;28;20098;-90
2022/07/05 05:38:11;;;;;;;20.20;2.78;;;26.50;53.70;;;;;;5037418;28;20021;-90
2022/07/05 05:40:44;;;;;;;6.63;1.65;;;26.60;53.80;;;;;;5037201;28;20115;-90
2022/07/05 05:43:10;;;;;;;6.78;2.38;;;26.60;53.90;;;;;;5037077;28;20025;-90
2022/07/05 05:45:36;;;;;;;10.57;2.40;;;26.70;53.80;;;;;;5037297;28;20025;-90
2022/07/05 05:48:02;;;;;;;15.02;2.65;;;26.70;53.10;;;;;;5035519;28;20033;-89
2022/07/05 05:50:34;;;;;;;12.23;2.00;;;26.80;52.20;;;;;;5028334;28;20037;-89
2022/07/05 05:53:00;;;;;;;5.00;1.60;;;27.00;51.60;;;;;;5034398;28;20033;-89
2022/07/05 05:55:28;;;;;;;6.47;2.40;;;27.20;51.20;;;;;;5036481;28;20032;-89
2022/07/05 05:57:54;;;;;;;8.02;2.08;;;27.40;51.20;;;;;;5035940;28;20124;-90
2022/07/05 06:00:21;;;;;;;12.32;1.83;;;27.80;49.70;;;;;;5037252;28;20088;-89
2022/07/05 06:02:49;;;;;;;3.90;1.77;;;28.20;49.90;;;;;;5029283;28;20099;-89
2022/07/05 06:05:15;;;;;;;4.13;1.70;;;28.70;50.50;;;;;;5023410;28;20487;-87
2022/07/05 06:07:52;;;;;;;5.63;1.50;;;28.90;50.50;;;;;;5025514;28;20096;-89
2022/07/05 06:10:19;;;;;;;8.50;2.10;;;29.10;51.50;;;;;;5011485;28;20038;-88
2022/07/05 06:12:45;;;;;;;7.43;2.03;;;29.10;53.00;;;;;;5032320;28;20064;-89
2022/07/05 06:15:11;;;;;;;11.23;3.00;;;29.00;53.20;;;;;;5036342;28;20062;-90
2022/07/05 06:17:37;;;;;;;8.65;2.25;;;29.00;54.30;;;;;;5036661;28;20093;-87
2022/07/05 06:20:08;;;;;;;11.75;1.60;;;28.90;52.10;;;;;;5036500;28;20033;-89
2022/07/05 06:22:34;;;;;;;15.80;2.10;;;28.90;52.30;;;;;;5036664;28;20033;-88
2022/07/05 06:25:00;;;;;;;11.55;1.95;;;29.00;50.50;;;;;;5036718;28;20498;-88
2022/07/05 06:27:25;;;;;;;14.77;2.47;;;29.00;50.90;;;;;;5036318;28;20039;-89
2022/07/05 06:29:51;;;;;;;16.23;2.10;;;28.90;51.20;;;;;;5055496;28;20044;-89
2022/07/05 06:32:17;;;;;;;10.18;1.98;;;28.90;51.90;;;;;;5035486;28;20123;-88
2022/07/05 06:34:42;;;;;;;6.78;2.05;;;28.70;51.90;;;;;;5036344;28;20024;-88
2022/07/05 06:37:08;;;;;;;16.55;1.80;;;28.60;50.70;;;;;;5035952;28;20167;-89
2022/07/05 06:39:33;;;;;;;6.38;1.70;;;28.50;50.80;;;;;;5053897;28;20087;-89
2022/07/05 06:41:59;;;;;;;12.30;2.45;;;28.40;50.40;;;;;;5035852;28;20398;-88
2022/07/05 06:44:25;;;;;;;9.10;1.98;;;28.40;50.20;;;;;;5036250;28;20033;-89
2022/07/05 06:46:51;;;;;;;8.85;2.20;;;28.40;50.10;;;;;;5035055;28;20028;-88
2022/07/05 06:49:16;;;;;;;4.55;1.70;;;28.40;49.90;;;;;;5034514;28;20047;-88
2022/07/05 06:51:42;;;;;;;7.82;1.90;;;28.40;49.90;;;;;;5035084;28;20127;-87
2022/07/05 06:54:07;;;;;;;9.50;2.17;;;28.40;50.40;;;;;;5036047;28;20032;-89
2022/07/05 06:56:33;;;;;;;7.57;2.10;;;28.40;50.30;;;;;;5035813;28;20056;-89
2022/07/05 06:58:59;;;;;;;5.47;1.90;;;28.40;50.50;;;;;;5047475;28;20392;-88
2022/07/05 07:01:24;;;;;;;5.63;2.67;;;28.40;50.40;;;;;;5055457;28;20028;-88
2022/07/05 07:03:50;;;;;;;8.18;2.22;;;28.50;49.90;;;;;;5055207;28;20025;-87
2022/07/05 07:06:16;;;;;;;8.00;1.88;;;28.60;50.30;;;;;;5046868;28;20025;-89
2022/07/05 07:11:26;;;;;;;10.57;2.33;;;28.90;49.50;;;;;;5053576;28;20032;-89
2022/07/05 07:13:52;;;;;;;9.93;2.38;;;29.00;49.10;;;;;;5035111;28;20550;-87
2022/07/05 07:16:17;;;;;;;6.40;2.30;;;29.00;49.20;;;;;;5035813;28;20490;-89
2022/07/05 07:18:43;;;;;;;17.58;2.72;;;29.10;48.70;;;;;;5035333;28;20036;-87
2022/07/05 07:21:09;;;;;;;6.40;2.15;;;29.10;47.30;;;;;;5035541;28;20025;-89
2022/07/05 07:23:36;;;;;;;11.65;2.20;;;29.10;46.90;;;;;;5052990;28;20033;-89
2022/07/05 07:26:02;;;;;;;13.68;2.17;;;29.10;46.80;;;;;;5035387;28;20028;-88
2022/07/05 07:28:29;;;;;;;7.55;1.55;;;29.10;46.20;;;;;;5035009;28;20045;-88
2022/07/05 07:30:55;;;;;;;6.80;1.63;;;29.20;45.20;;;;;;5035424;28;20082;-89
2022/07/05 07:33:21;;;;;;;10.20;2.40;;;29.30;45.70;;;;;;5034864;28;20029;-88
2022/07/05 07:35:46;;;;;;;12.70;2.33;;;29.40;46.20;;;;;;5035110;28;20028;-88
2022/07/05 07:38:12;;;;;;;4.88;2.00;;;29.60;44.50;;;;;;5035420;28;20374;-89
2022/07/05 07:40:38;;;;;;;3.03;1.70;;;29.80;43.40;;;;;;5035084;28;20138;-88
2022/07/05 07:43:03;;;;;;;3.75;1.65;;;29.80;42.90;;;;;;5034900;28;20033;-89
2022/07/05 07:45:30;;;;;;;4.53;2.10;;;30.00;41.70;;;;;;5034200;28;20017;-89
2022/07/05 07:47:56;;;;;;;3.78;1.75;;;30.20;40.80;;;;;;5052638;28;20021;-91
2022/07/05 07:50:22;;;;;;;2.35;1.60;;;30.40;40.80;;;;;;5034447;28;20768;-88
2022/07/05 07:52:48;;;;;;;2.50;1.35;;;30.60;39.90;;;;;;5035087;28;20063;-88
2022/07/05 07:55:15;;;;;;;4.10;1.90;;;30.80;40.30;;;;;;5035143;28;20031;-88
2022/07/05 07:57:41;;;;;;;3.83;1.92;;;30.90;39.70;;;;;;5034538;28;20064;-88
2022/07/05 08:00:07;;;;;;;2.55;2.00;;;31.10;40.00;;;;;;5034643;28;20017;-85
2022/07/05 08:02:33;;;;;;;4.65;2.00;;;31.30;40.00;;;;;;5052233;28;20078;-89
2022/07/05 08:04:58;;;;;;;4.38;1.95;;;31.70;38.10;;;;;;5034004;28;20025;-89
2022/07/05 08:07:26;;;;;;;6.70;1.60;;;32.20;38.90;;;;;;5034397;28;20057;-89
2022/07/05 08:09:52;;;;;;;5.78;1.92;;;32.50;37.30;;;;;;5034574;28;20562;-89
2022/07/05 08:12:19;;;;;;;5.07;1.70;;;33.00;35.70;;;;;;5034854;28;20025;-89
2022/07/05 08:14:45;;;;;;;15.75;1.70;;;33.30;35.90;;;;;;5052318;28;20032;-89
2022/07/05 08:17:12;;;;;;;4.43;1.73;;;33.50;36.40;;;;;;5051749;28;20021;-88
2022/07/05 08:22:23;;;;;;;3.72;1.73;;;34.30;33.50;;;;;;5052174;28;20085;-88
2022/07/05 08:24:49;;;;;;;2.75;1.80;;;34.80;33.50;;;;;;5052715;28;20040;-88
2022/07/05 08:27:15;;;;;;;4.28;1.67;;;35.80;31.90;;;;;;5052259;28;20029;-88
2022/07/05 08:29:42;;;;;;;4.72;1.90;;;36.60;31.20;;;;;;5034683;28;20052;-90
2022/07/05 08:32:09;;;;;;;4.88;1.98;;;37.40;30.30;;;;;;5033974;28;20029;-90
2022/07/05 08:34:34;;;;;;;4.03;1.90;;;38.10;30.90;;;;;;5037041;28;20182;-89
2022/07/05 08:37:00;;;;;;;5.70;1.98;;;38.30;30.00;;;;;;5051570;28;20040;-89
2022/07/05 08:39:27;;;;;;;4.65;1.50;;;38.40;29.40;;;;;;5036473;28;20553;-89
2022/07/05 08:41:54;;;;;;;4.25;1.90;;;38.10;29.10;;;;;;5044792;28;20028;-88
2022/07/05 08:44:21;;;;;;;6.35;2.00;;;37.90;29.50;;;;;;5041625;28;20033;-88
2022/07/05 08:46:50;;;;;;;1.98;1.70;;;37.90;29.10;;;;;;5038453;28;20473;-89
2022/07/05 08:49:22;;;;;;;4.97;1.70;;;37.50;28.40;;;;;;5033566;28;20040;-89
2022/07/05 08:51:49;;;;;;;3.60;2.00;;;37.50;28.40;;;;;;5044820;28;20021;-88
2022/07/05 08:54:15;;;;;;;4.68;1.70;;;36.90;29.00;;;;;;5051410;28;20025;-88
2022/07/05 08:56:42;;;;;;;3.25;1.50;;;36.30;29.80;;;;;;5033397;28;20031;-88
2022/07/05 08:59:07;;;;;;;3.78;1.52;;;35.90;30.00;;;;;;5051226;28;20122;-88
2022/07/05 09:01:35;;;;;;;3.28;1.77;;;35.60;30.40;;;;;;5034101;28;20052;-86
2022/07/05 09:04:05;;;;;;;6.70;1.88;;;35.50;30.10;;;;;;5051501;28;20079;-88
2022/07/05 09:06:34;;;;;;;2.42;1.45;;;35.60;30.20;;;;;;5033628;28;20021;-86
2022/07/05 09:09:01;;;;;;;5.07;1.50;;;36.00;30.50;;;;;;5033225;28;20394;-88
2022/07/05 09:11:39;;;;;;;3.95;2.00;;;36.20;30.20;;;;;;5051314;28;20017;-88
2022/07/05 09:14:07;;;;;;;9.93;1.63;;;36.50;29.80;;;;;;5033086;28;20025;-88
2022/07/05 09:16:33;;;;;;;14.75;1.67;;;36.90;29.50;;;;;;5033184;28;20024;-89
2022/07/05 09:19:07;;;;;;;5.55;1.67;;;37.30;29.50;;;;;;5030098;28;20103;-87
2022/07/05 09:21:33;;;;;;;9.83;1.83;;;38.30;29.20;;;;;;5030676;28;20025;-88
2022/07/05 09:24:04;;;;;;;4.03;1.60;;;38.80;28.50;;;;;;5050428;28;20029;-87
2022/07/05 09:26:45;;;;;;;4.07;1.70;;;39.10;28.40;;;;;;5032832;28;20033;-88
2022/07/05 09:29:13;;;;;;;3.10;1.95;;;38.90;26.90;;;;;;5069874;28;20100;-88
2022/07/05 09:31:44;;;;;;;2.40;1.77;;;38.50;27.90;;;;;;5052782;28;20116;-87
2022/07/05 09:34:17;;;;;;;4.78;2.20;;;38.50;28.50;;;;;;5052449;28;20082;-87
2022/07/05 09:36:53;;;;;;;9.38;2.45;;;38.00;28.10;;;;;;5069795;28;20027;-88
2022/07/05 09:39:36;;;;;;;9.23;2.30;;;37.40;28.20;;;;;;5070841;28;20032;-88
2022/07/05 09:42:14;;;;;;;10.20;1.90;;;36.80;29.00;;;;;;5052275;28;20020;-88
2022/07/05 09:44:44;;;;;;;3.92;2.13;;;36.70;29.40;;;;;;5050191;28;20025;-88
2022/07/05 09:47:15;;;;;;;2.90;1.85;;;36.50;29.50;;;;;;5049699;28;20023;-86
2022/07/05 09:49:43;;;;;;;4.60;1.95;;;36.60;29.80;;;;;;5049799;28;20037;-88
2022/07/05 09:52:10;;;;;;;5.53;1.92;;;36.50;30.00;;;;;;5032429;28;20444;-88
2022/07/05 09:54:35;;;;;;;5.15;2.03;;;36.20;30.20;;;;;;5032704;28;20029;-87
2022/07/05 09:57:01;;;;;;;9.63;2.58;;;36.20;30.00;;;;;;5033252;28;20667;-89
2022/07/05 09:59:27;;;;;;;7.53;3.20;;;36.30;29.90;;;;;;5033090;28;20581;-88
2022/07/05 10:01:52;;;;;;;4.38;2.40;;;36.70;30.00;;;;;;5033394;28;20031;-88
2022/07/05 10:04:19;;;;;;;6.05;1.70;;;36.80;30.10;;;;;;5033470;28;20123;-88
2022/07/05 10:06:45;;;;;;;7.05;1.83;;;37.10;30.00;;;;;;5038912;28;20088;-88
2022/07/05 10:09:14;;;;;;;2.47;1.55;;;37.50;30.00;;;;;;5038992;28;20053;-86
2022/07/05 10:11:42;;;;;;;4.45;1.90;;;37.60;29.60;;;;;;5029861;28;20453;-87
2022/07/05 10:14:15;;;;;;;8.82;2.13;;;37.60;29.70;;;;;;5029862;28;20041;-86
2022/07/05 10:16:55;;;;;;;4.47;1.65;;;37.40;29.80;;;;;;5033343;28;20045;-86
2022/07/05 10:19:22;;;;;;;4.20;1.95;;;37.30;29.30;;;;;;5017459;28;20038;-87
2022/07/05 10:21:49;;;;;;;4.90;1.88;;;37.10;29.70;;;;;;5013220;28;20033;-83
2022/07/05 10:24:17;;;;;;;5.38;2.42;;;37.10;29.90;;;;;;4996079;28;20515;-85
2022/07/05 10:26:46;;;;;;;6.60;2.28;;;36.90;30.00;;;;;;5013284;28;20064;-86
2022/07/05 10:29:13;;;;;;;4.47;2.00;;;36.60;29.80;;;;;;4997063;28;20410;-83
2022/07/05 10:31:39;;;;;;;4.43;1.88;;;36.40;30.40;;;;;;5000903;28;20049;-85
2022/07/05 10:34:07;;;;;;;2.92;1.70;;;36.40;30.70;;;;;;5003814;28;20041;-83
2022/07/05 10:36:34;;;;;;;5.68;2.15;;;36.40;31.40;;;;;;5027143;28;20068;-84
2022/07/05 10:39:01;;;;;;;6.00;2.47;;;36.50;31.30;;;;;;5008147;28;20033;-83
2022/07/05 10:41:29;;;;;;;4.93;2.25;;;36.50;31.50;;;;;;5018011;28;20662;-83
2022/07/05 10:43:58;;;;;;;3.95;2.33;;;36.50;30.30;;;;;;5009008;28;20486;-82
2022/07/05 10:46:37;;;;;;;8.93;3.88;;;36.40;30.60;;;;;;5005913;28;20034;-82
2022/07/05 10:49:11;;;;;;;5.97;2.28;;;36.20;31.20;;;;;;5011455;28;20041;-82
2022/07/05 10:51:37;;;;;;;7.85;2.20;;;35.90;31.50;;;;;;5020055;28;20803;-83
2022/07/05 10:54:03;;;;;;;10.65;2.67;;;36.00;31.90;;;;;;5014584;28;20126;-83
2022/07/05 10:56:29;;;;;;;6.40;2.05;;;36.20;31.90;;;;;;5020721;28;20026;-82
2022/07/05 10:59:09;;;;;;;4.75;2.50;;;36.50;31.30;;;;;;5012901;28;20037;-83
2022/07/05 11:01:37;;;;;;;5.88;2.92;;;36.80;30.80;;;;;;5005246;28;20045;-83
2022/07/05 11:04:04;;;;;;;3.17;2.42;;;37.10;31.50;;;;;;5021208;28;20371;-82
2022/07/05 11:06:45;;;;;;;8.43;2.00;;;37.10;30.60;;;;;;5020662;28;20065;-84
2022/07/05 11:09:11;;;;;;;4.18;2.83;;;37.10;30.10;;;;;;5017800;28;20140;-82
2022/07/05 11:11:42;;;;;;;4.05;2.28;;;37.00;30.00;;;;;;5018047;28;20128;-84
2022/07/05 11:14:20;;;;;;;6.20;2.60;;;36.80;29.60;;;;;;5029159;28;20041;-84
2022/07/05 11:16:47;;;;;;;8.38;2.30;;;36.60;29.70;;;;;;5018987;28;20091;-84
2022/07/05 11:19:20;;;;;;;7.25;2.40;;;36.10;30.30;;;;;;5025282;28;20037;-84
2022/07/05 11:22:05;;;;;;;4.47;2.60;;;35.80;31.90;;;;;;5012975;28;20805;-82
2022/07/05 11:24:35;;;;;;;;;;;35.60;31.00;;;;;;5036257;28;20029;-81
2022/07/05 11:27:04;;;;;;;4.78;3.10;;;35.40;31.90;;;;;;5033194;28;19940;-83
2022/07/05 11:29:50;;;;;;;10.85;3.13;;;35.40;33.70;;;;;;5008315;28;20159;-82
2022/07/05 11:32:17;;;;;;;6.18;3.17;;;35.40;32.70;;;;;;5016931;28;20520;-86
2022/07/05 11:34:44;;;;;;;8.45;3.00;;;35.50;32.60;;;;;;5027094;28;20499;-84
2022/07/05 11:37:32;;;;;;;5.65;3.03;;;35.40;32.60;;;;;;5001524;28;20037;-84
2022/07/05 11:40:07;;;;;;;4.85;2.88;;;35.40;33.10;;;;;;5002838;28;20334;-84
2022/07/05 11:42:34;;;;;;;10.13;3.33;;;35.30;33.20;;;;;;4990008;28;20172;-83
2022/07/05 11:45:00;;;;;;;10.75;2.72;;;35.20;33.20;;;;;;4996129;28;20041;-84
2022/07/05 11:47:27;;;;;;;5.22;1.88;;;35.20;33.50;;;;;;5024267;28;20091;-84
2022/07/05 11:49:57;;;;;;;7.22;2.40;;;35.20;36.20;;;;;;5013080;28;20069;-82
2022/07/05 11:52:29;;;;;;;7.53;1.27;;;35.10;35.90;;;;;;5021943;28;20059;-83
2022/07/05 11:55:00;;;;;;;17.67;1.50;;;34.90;39.70;;;;;;5033973;28;20064;-84
2022/07/05 11:57:25;;;;;;;5.72;1.38;;;34.70;41.70;;;;;;5018803;28;20048;-83
2022/07/05 11:59:51;;;;;;;12.02;1.60;;;34.30;40.90;;;;;;5004883;28;20035;-85
2022/07/05 12:02:18;;;;;;;2.28;1.30;;;33.90;43.60;;;;;;5028283;28;20041;-84
2022/07/05 12:04:55;;;;;;;9.02;1.23;;;33.50;44.30;;;;;;5017315;28;20056;-83
2022/07/05 12:07:28;;;;;;;2.03;0.93;;;33.30;45.20;;;;;;5030275;28;20032;-83
2022/07/05 12:12:43;;;;;;;7.38;1.38;;;32.80;46.30;;;;;;5025096;28;20179;-83
2022/07/05 12:15:18;;;;;;;4.30;1.05;;;32.60;46.90;;;;;;4998423;28;20085;-83
2022/07/05 12:17:45;;;;;;;1.98;1.23;;;32.40;47.10;;;;;;5031140;28;20041;-85
2022/07/05 12:20:14;;;;;;;2.40;0.90;;;32.30;47.00;;;;;;5040083;28;20037;-85
2022/07/05 12:22:44;;;;;;;3.63;1.48;;;32.30;47.10;;;;;;5006391;28;20041;-83
2022/07/05 12:25:15;;;;;;;9.85;2.10;;;32.30;48.50;;;;;;4994278;28;20052;-83
2022/07/05 12:27:43;;;;;;;2.45;1.45;;;32.30;47.90;;;;;;5019067;28;20455;-85
2022/07/05 12:30:10;;;;;;;4.65;1.25;;;32.30;48.80;;;;;;5003059;28;20038;-83
2022/07/05 12:32:58;;;;;;;7.65;1.30;;;32.10;49.70;;;;;;5028563;28;20052;-83
2022/07/05 12:35:43;;;;;;;6.35;1.15;;;32.10;50.10;;;;;;5012912;28;20100;-83
2022/07/05 12:38:10;;;;;;;5.88;1.17;;;32.00;50.20;;;;;;5029200;28;20323;-84
2022/07/05 12:40:38;;;;;;;2.63;1.58;;;31.90;49.50;;;;;;5053093;28;20517;-84
2022/07/05 12:43:18;;;;;;;5.82;1.30;;;31.90;49.00;;;;;;5033047;28;20112;-86
2022/07/05 12:46:07;;;;;;;2.95;1.10;;;32.10;50.60;;;;;;5031524;28;20021;-85
2022/07/05 12:48:34;;;;;;;2.40;1.30;;;32.00;48.50;;;;;;5047764;28;20037;-86
2022/07/05 12:51:01;;;;;;;2.15;1.05;;;31.90;49.00;;;;;;5029310;28;20024;-84
2022/07/05 12:59:09;;;;;;;2.65;0.80;;;31.70;49.10;;;;;;5048847;28;20110;-84
2022/07/05 13:01:39;;;;;;;6.22;1.40;;;31.50;49.40;;;;;;5030159;28;20032;-85